Here is the Quick Look data you requested

The Data originates at the National Weather Service, and is made available here by the UAlbany Department of Atmospheric and Environmental Sciences

Surface Observations

KCVG 161052Z 24003KT 10SM SCT065 BKN130 22/12 A3008 RMK AO2 SLP175 T02170122 $=
KCVG 161152Z 20003KT 10SM FEW065 SCT130 21/13 A3009 RMK AO2 SLP180 T02110128
 10228 20200 53006=
KCVG 161252Z 22006KT 10SM SCT070 BKN120 24/13 A3009 RMK AO2 SLP180 VIS LWR SSW
 T02440133=
KCVG 161352Z 26005KT 10SM FEW060 FEW130 26/15 A3010 RMK AO2 SLP180 T02560150=
KCVG 161652Z 02008G17KT 10SM FEW055 31/18 A3008 RMK AO2 SLP176 T03060183=
KCVG 161752Z 26004KT 10SM SCT046 32/18 A3007 RMK AO2 SLP170 T03170183 10322
 20211 58009=
KCVG 161852Z 35010KT 10SM FEW050 BKN060 32/18 A3005 RMK AO2 SLP163 T03220183=
KCVG 161952Z 35011KT 10SM FEW060 BKN075 31/18 A3003 RMK AO2 SLP159 T03110178=
KCVG 162052Z 35006KT 10SM FEW070 BKN080 32/17 A3002 RMK AO2 SLP155 T03220167
 56015=
KCVG 162152Z 34008KT 10SM SCT075 32/17 A3002 RMK AO2 SLP153 T03170172=
KCVG 162252Z 34007KT 10SM FEW075 29/18 A3002 RMK AO2 SLP154 T02940178=
KCVG 162352Z 36006KT 10SM FEW075 FEW250 28/18 A3002 RMK AO2 SLP156 T02780178
 10328 20278 55000=
KCVG 170052Z 35006KT 10SM CLR 27/17 A3003 RMK AO2 SLP159 T02670172=
KCVG 170152Z 01007KT 10SM CLR 26/17 A3004 RMK AO2 SLP162 T02560172=
KCVG 170252Z 04009KT 10SM CLR 26/17 A3006 RMK AO2 SLP167 T02610167 53011=
KCVG 170352Z 02008KT 10SM CLR 25/17 A3006 RMK AO2 SLP169 T02500172=
KCVG 170452Z 04008KT 10SM CLR 24/17 A3007 RMK A02 SLP170 T02440172 403280200=
KCVG 170552Z 05010KT 10SM FEW250 24/16 A3008 RMK AO2 SLP173 T02390161 10278
 20239 52007=
KCVG 170652Z 06008KT 10SM CLR 23/17 A3008 RMK AO2 SLP172 T02280167=
KCVG 170752Z 07006KT 10SM CLR 22/17 A3006 RMK AO2 SLP168 T02220167=
KCVG 170852Z 06005KT 10SM CLR 22/17 A3007 RMK AO2 SLP170 T02170167 55004=
KCVG 170952Z 03008KT 10SM CLR 21/17 A3008 RMK AO2 SLP174 T02110167=
KCVG 171052Z 03006KT 10SM CLR 20/17 A3010 RMK AO2 SLP181 T02000167=